sensor_id;sensor_type;location;lat;lon;timestamp;temperature;humidity
46378;DHT22;32083;47.360;9.650;2022-12-07T00:01:24;0.90;99.90
46378;DHT22;32083;47.360;9.650;2022-12-07T00:03:51;0.90;99.90
46378;DHT22;32083;47.360;9.650;2022-12-07T00:06:18;0.80;99.90
46378;DHT22;32083;47.360;9.650;2022-12-07T00:08:45;0.80;99.90
46378;DHT22;32083;47.360;9.650;2022-12-07T00:11:17;0.80;99.90
46378;DHT22;32083;47.360;9.650;2022-12-07T00:13:43;0.80;99.90
46378;DHT22;32083;47.360;9.650;2022-12-07T00:16:17;0.90;99.90
46378;DHT22;32083;47.360;9.650;2022-12-07T00:18:43;0.90;99.90
46378;DHT22;32083;47.360;9.650;2022-12-07T00:23:45;1.00;99.90
46378;DHT22;32083;47.360;9.650;2022-12-07T00:26:14;1.00;99.90
46378;DHT22;32083;47.360;9.650;2022-12-07T00:28:40;1.10;99.90
46378;DHT22;32083;47.360;9.650;2022-12-07T00:31:11;1.10;99.90
46378;DHT22;32083;47.360;9.650;2022-12-07T00:33:37;1.10;99.90
46378;DHT22;32083;47.360;9.650;2022-12-07T00:36:09;1.10;99.90
46378;DHT22;32083;47.360;9.650;2022-12-07T00:38:36;1.10;99.90
46378;DHT22;32083;47.360;9.650;2022-12-07T00:41:05;1.10;99.90
46378;DHT22;32083;47.360;9.650;2022-12-07T00:43:31;1.20;99.90
46378;DHT22;32083;47.360;9.650;2022-12-07T00:45:57;1.20;99.90
46378;DHT22;32083;47.360;9.650;2022-12-07T00:48:23;1.20;99.90
46378;DHT22;32083;47.360;9.650;2022-12-07T00:50:49;1.20;99.90
46378;DHT22;32083;47.360;9.650;2022-12-07T00:53:15;1.20;99.90
46378;DHT22;32083;47.360;9.650;2022-12-07T00:55:42;1.20;99.90
46378;DHT22;32083;47.360;9.650;2022-12-07T00:58:08;1.20;99.90
46378;DHT22;32083;47.360;9.650;2022-12-07T01:00:35;1.20;99.90
46378;DHT22;32083;47.360;9.650;2022-12-07T01:03:02;1.20;99.90
46378;DHT22;32083;47.360;9.650;2022-12-07T01:05:27;1.20;99.90
46378;DHT22;32083;47.360;9.650;2022-12-07T01:07:53;1.20;99.90
46378;DHT22;32083;47.360;9.650;2022-12-07T01:10:19;1.30;99.90
46378;DHT22;32083;47.360;9.650;2022-12-07T01:12:44;1.20;99.90
46378;DHT22;32083;47.360;9.650;2022-12-07T01:15:10;1.30;99.90
46378;DHT22;32083;47.360;9.650;2022-12-07T01:17:36;1.30;99.90
46378;DHT22;32083;47.360;9.650;2022-12-07T01:20:02;1.30;99.90
46378;DHT22;32083;47.360;9.650;2022-12-07T01:22:28;1.30;99.90
46378;DHT22;32083;47.360;9.650;2022-12-07T01:24:54;1.30;99.90
46378;DHT22;32083;47.360;9.650;2022-12-07T01:27:19;1.40;99.90
46378;DHT22;32083;47.360;9.650;2022-12-07T01:29:45;1.40;99.90
46378;DHT22;32083;47.360;9.650;2022-12-07T01:32:11;1.40;99.90
46378;DHT22;32083;47.360;9.650;2022-12-07T01:34:36;1.40;99.90
46378;DHT22;32083;47.360;9.650;2022-12-07T01:37:02;1.50;99.90
46378;DHT22;32083;47.360;9.650;2022-12-07T01:39:28;1.50;99.90
46378;DHT22;32083;47.360;9.650;2022-12-07T01:41:54;1.50;99.90
46378;DHT22;32083;47.360;9.650;2022-12-07T01:44:28;1.50;99.90
46378;DHT22;32083;47.360;9.650;2022-12-07T01:47:03;1.50;99.90
46378;DHT22;32083;47.360;9.650;2022-12-07T01:49:39;1.50;99.90
46378;DHT22;32083;47.360;9.650;2022-12-07T01:52:16;1.50;99.90
46378;DHT22;32083;47.360;9.650;2022-12-07T01:54:44;1.50;99.90
46378;DHT22;32083;47.360;9.650;2022-12-07T01:57:12;1.50;99.90
46378;DHT22;32083;47.360;9.650;2022-12-07T01:59:39;1.50;99.90
46378;DHT22;32083;47.360;9.650;2022-12-07T02:02:11;1.60;99.90
46378;DHT22;32083;47.360;9.650;2022-12-07T02:04:38;1.60;99.90
46378;DHT22;32083;47.360;9.650;2022-12-07T02:07:05;1.60;99.90
46378;DHT22;32083;47.360;9.650;2022-12-07T02:09:31;1.60;99.90
46378;DHT22;32083;47.360;9.650;2022-12-07T02:11:57;1.60;99.90
46378;DHT22;32083;47.360;9.650;2022-12-07T02:14:23;1.70;99.90
46378;DHT22;32083;47.360;9.650;2022-12-07T02:28:07;1.60;99.90
46378;DHT22;32083;47.360;9.650;2022-12-07T02:30:43;1.60;99.90
46378;DHT22;32083;47.360;9.650;2022-12-07T02:33:22;1.60;99.90
46378;DHT22;32083;47.360;9.650;2022-12-07T02:36:06;1.60;99.90
46378;DHT22;32083;47.360;9.650;2022-12-07T02:38:40;1.60;99.90
46378;DHT22;32083;47.360;9.650;2022-12-07T02:41:13;1.60;99.90
46378;DHT22;32083;47.360;9.650;2022-12-07T02:43:50;1.60;99.90
46378;DHT22;32083;47.360;9.650;2022-12-07T02:46:25;1.50;99.90
46378;DHT22;32083;47.360;9.650;2022-12-07T02:48:53;1.50;99.90
46378;DHT22;32083;47.360;9.650;2022-12-07T02:51:20;1.50;99.90
46378;DHT22;32083;47.360;9.650;2022-12-07T02:53:46;1.50;99.90
46378;DHT22;32083;47.360;9.650;2022-12-07T02:59:25;1.50;99.90
46378;DHT22;32083;47.360;9.650;2022-12-07T03:07:49;1.40;99.90
46378;DHT22;32083;47.360;9.650;2022-12-07T03:18:30;1.50;99.90
46378;DHT22;32083;47.360;9.650;2022-12-07T03:21:00;1.50;99.90
46378;DHT22;32083;47.360;9.650;2022-12-07T03:23:27;1.50;99.90
46378;DHT22;32083;47.360;9.650;2022-12-07T03:25:58;1.50;99.90
46378;DHT22;32083;47.360;9.650;2022-12-07T03:28:31;1.50;99.90
46378;DHT22;32083;47.360;9.650;2022-12-07T03:31:01;1.50;99.90
46378;DHT22;32083;47.360;9.650;2022-12-07T03:33:39;1.50;99.90
46378;DHT22;32083;47.360;9.650;2022-12-07T03:36:23;1.50;99.90
46378;DHT22;32083;47.360;9.650;2022-12-07T03:39:15;1.60;99.90
46378;DHT22;32083;47.360;9.650;2022-12-07T03:41:43;1.60;99.90
46378;DHT22;32083;47.360;9.650;2022-12-07T03:44:09;1.60;99.90
46378;DHT22;32083;47.360;9.650;2022-12-07T03:49:37;1.60;99.90
46378;DHT22;32083;47.360;9.650;2022-12-07T03:52:11;1.60;99.90
46378;DHT22;32083;47.360;9.650;2022-12-07T03:54:44;1.60;99.90
46378;DHT22;32083;47.360;9.650;2022-12-07T03:57:12;1.50;99.90
46378;DHT22;32083;47.360;9.650;2022-12-07T03:59:38;1.50;99.90
46378;DHT22;32083;47.360;9.650;2022-12-07T04:02:06;1.60;99.90
46378;DHT22;32083;47.360;9.650;2022-12-07T04:04:33;1.60;99.90
46378;DHT22;32083;47.360;9.650;2022-12-07T04:06:59;1.50;99.90
46378;DHT22;32083;47.360;9.650;2022-12-07T04:09:25;1.60;99.90
46378;DHT22;32083;47.360;9.650;2022-12-07T04:11:51;1.60;99.90
46378;DHT22;32083;47.360;9.650;2022-12-07T04:14:17;1.60;99.90
46378;DHT22;32083;47.360;9.650;2022-12-07T04:16:49;1.60;99.90
46378;DHT22;32083;47.360;9.650;2022-12-07T04:19:17;1.60;99.90
46378;DHT22;32083;47.360;9.650;2022-12-07T04:21:43;1.60;99.90
46378;DHT22;32083;47.360;9.650;2022-12-07T04:24:08;1.60;99.90
46378;DHT22;32083;47.360;9.650;2022-12-07T04:26:34;1.60;99.90
46378;DHT22;32083;47.360;9.650;2022-12-07T04:29:00;1.70;99.90
46378;DHT22;32083;47.360;9.650;2022-12-07T04:31:26;1.70;99.90
46378;DHT22;32083;47.360;9.650;2022-12-07T04:33:51;1.70;99.90
46378;DHT22;32083;47.360;9.650;2022-12-07T04:36:17;1.70;99.90
46378;DHT22;32083;47.360;9.650;2022-12-07T04:38:45;1.80;99.90
46378;DHT22;32083;47.360;9.650;2022-12-07T04:41:10;1.80;99.90
46378;DHT22;32083;47.360;9.650;2022-12-07T04:43:37;1.80;99.90
46378;DHT22;32083;47.360;9.650;2022-12-07T04:46:03;1.80;99.90
46378;DHT22;32083;47.360;9.650;2022-12-07T04:48:29;1.80;99.90
46378;DHT22;32083;47.360;9.650;2022-12-07T04:50:54;1.80;99.90
46378;DHT22;32083;47.360;9.650;2022-12-07T04:53:20;1.70;99.90
46378;DHT22;32083;47.360;9.650;2022-12-07T04:55:46;1.80;99.90
46378;DHT22;32083;47.360;9.650;2022-12-07T04:58:13;1.80;99.90
46378;DHT22;32083;47.360;9.650;2022-12-07T05:00:39;1.80;99.90
46378;DHT22;32083;47.360;9.650;2022-12-07T05:03:05;1.80;99.90
46378;DHT22;32083;47.360;9.650;2022-12-07T05:05:31;1.80;99.90
46378;DHT22;32083;47.360;9.650;2022-12-07T05:07:57;1.80;99.90
46378;DHT22;32083;47.360;9.650;2022-12-07T05:10:22;1.80;99.90
46378;DHT22;32083;47.360;9.650;2022-12-07T05:12:49;1.80;99.90
46378;DHT22;32083;47.360;9.650;2022-12-07T05:15:15;1.80;99.90
46378;DHT22;32083;47.360;9.650;2022-12-07T05:17:42;1.80;99.90
46378;DHT22;32083;47.360;9.650;2022-12-07T05:20:08;1.80;99.90
46378;DHT22;32083;47.360;9.650;2022-12-07T05:22:34;1.80;99.90
46378;DHT22;32083;47.360;9.650;2022-12-07T05:25:00;1.80;99.90
46378;DHT22;32083;47.360;9.650;2022-12-07T05:27:25;1.80;99.90
46378;DHT22;32083;47.360;9.650;2022-12-07T05:29:51;1.90;99.90
46378;DHT22;32083;47.360;9.650;2022-12-07T05:32:17;1.90;99.90
46378;DHT22;32083;47.360;9.650;2022-12-07T05:34:43;1.90;99.90
46378;DHT22;32083;47.360;9.650;2022-12-07T05:37:09;2.00;99.90
46378;DHT22;32083;47.360;9.650;2022-12-07T05:39:35;2.00;99.90
46378;DHT22;32083;47.360;9.650;2022-12-07T05:42:01;2.00;99.90
46378;DHT22;32083;47.360;9.650;2022-12-07T05:44:44;2.00;99.90
46378;DHT22;32083;47.360;9.650;2022-12-07T05:47:11;2.00;99.90
46378;DHT22;32083;47.360;9.650;2022-12-07T05:49:36;2.00;99.90
46378;DHT22;32083;47.360;9.650;2022-12-07T05:52:02;2.00;99.90
46378;DHT22;32083;47.360;9.650;2022-12-07T05:54:28;2.00;99.90
46378;DHT22;32083;47.360;9.650;2022-12-07T05:56:54;2.00;99.90
46378;DHT22;32083;47.360;9.650;2022-12-07T05:59:20;2.00;99.90
46378;DHT22;32083;47.360;9.650;2022-12-07T06:04:16;2.00;99.90
46378;DHT22;32083;47.360;9.650;2022-12-07T06:06:42;2.00;99.90
46378;DHT22;32083;47.360;9.650;2022-12-07T06:09:08;1.90;99.90
46378;DHT22;32083;47.360;9.650;2022-12-07T06:11:34;1.90;99.90
46378;DHT22;32083;47.360;9.650;2022-12-07T06:14:18;2.00;99.90
46378;DHT22;32083;47.360;9.650;2022-12-07T06:16:44;2.00;99.90
46378;DHT22;32083;47.360;9.650;2022-12-07T06:19:09;2.00;99.90
46378;DHT22;32083;47.360;9.650;2022-12-07T06:21:35;2.00;99.90
46378;DHT22;32083;47.360;9.650;2022-12-07T06:24:01;2.00;99.90
46378;DHT22;32083;47.360;9.650;2022-12-07T06:26:27;2.00;99.90
46378;DHT22;32083;47.360;9.650;2022-12-07T06:28:53;2.00;99.90
46378;DHT22;32083;47.360;9.650;2022-12-07T06:31:20;2.00;99.90
46378;DHT22;32083;47.360;9.650;2022-12-07T06:33:46;2.00;99.90
46378;DHT22;32083;47.360;9.650;2022-12-07T06:36:13;2.00;99.90
46378;DHT22;32083;47.360;9.650;2022-12-07T06:38:39;2.00;99.90
46378;DHT22;32083;47.360;9.650;2022-12-07T06:41:05;2.00;99.90
46378;DHT22;32083;47.360;9.650;2022-12-07T06:43:32;2.00;99.90
46378;DHT22;32083;47.360;9.650;2022-12-07T06:45:57;2.00;99.90
46378;DHT22;32083;47.360;9.650;2022-12-07T06:48:23;2.00;99.90
46378;DHT22;32083;47.360;9.650;2022-12-07T06:50:49;2.00;99.90
46378;DHT22;32083;47.360;9.650;2022-12-07T06:53:15;2.00;99.90
46378;DHT22;32083;47.360;9.650;2022-12-07T06:55:41;2.00;99.90
46378;DHT22;32083;47.360;9.650;2022-12-07T06:58:07;2.00;99.90
46378;DHT22;32083;47.360;9.650;2022-12-07T07:00:33;2.00;99.90
46378;DHT22;32083;47.360;9.650;2022-12-07T07:03:01;2.00;99.90
46378;DHT22;32083;47.360;9.650;2022-12-07T07:05:27;2.00;99.90
46378;DHT22;32083;47.360;9.650;2022-12-07T07:07:52;2.00;99.90
46378;DHT22;32083;47.360;9.650;2022-12-07T07:10:18;2.00;99.90
46378;DHT22;32083;47.360;9.650;2022-12-07T07:12:44;2.00;99.90
46378;DHT22;32083;47.360;9.650;2022-12-07T07:15:10;2.10;99.90
46378;DHT22;32083;47.360;9.650;2022-12-07T07:17:37;2.10;99.90
46378;DHT22;32083;47.360;9.650;2022-12-07T07:20:04;2.20;99.90
46378;DHT22;32083;47.360;9.650;2022-12-07T07:22:30;2.10;99.90
46378;DHT22;32083;47.360;9.650;2022-12-07T07:24:56;2.20;99.90
46378;DHT22;32083;47.360;9.650;2022-12-07T07:27:22;2.20;99.90
46378;DHT22;32083;47.360;9.650;2022-12-07T07:29:48;2.20;99.90
46378;DHT22;32083;47.360;9.650;2022-12-07T07:32:14;2.20;99.90
46378;DHT22;32083;47.360;9.650;2022-12-07T07:34:39;2.20;99.90
46378;DHT22;32083;47.360;9.650;2022-12-07T07:37:05;2.20;99.90
46378;DHT22;32083;47.360;9.650;2022-12-07T07:39:31;2.20;99.90
46378;DHT22;32083;47.360;9.650;2022-12-07T07:41:57;2.30;99.90
46378;DHT22;32083;47.360;9.650;2022-12-07T07:44:23;2.30;99.90
46378;DHT22;32083;47.360;9.650;2022-12-07T07:46:49;2.30;99.90
46378;DHT22;32083;47.360;9.650;2022-12-07T07:49:15;2.30;99.90
46378;DHT22;32083;47.360;9.650;2022-12-07T07:51:41;2.30;99.90
46378;DHT22;32083;47.360;9.650;2022-12-07T07:54:07;2.30;99.90
46378;DHT22;32083;47.360;9.650;2022-12-07T07:56:33;2.30;99.90
46378;DHT22;32083;47.360;9.650;2022-12-07T07:58:59;2.20;99.90
46378;DHT22;32083;47.360;9.650;2022-12-07T08:01:24;2.20;99.90
46378;DHT22;32083;47.360;9.650;2022-12-07T08:03:50;2.20;99.90
46378;DHT22;32083;47.360;9.650;2022-12-07T08:06:16;2.30;99.90
46378;DHT22;32083;47.360;9.650;2022-12-07T08:08:42;2.30;99.90
46378;DHT22;32083;47.360;9.650;2022-12-07T08:11:09;2.30;99.90
46378;DHT22;32083;47.360;9.650;2022-12-07T08:13:35;2.30;99.90
46378;DHT22;32083;47.360;9.650;2022-12-07T08:16:07;2.40;99.90
46378;DHT22;32083;47.360;9.650;2022-12-07T08:18:40;2.40;99.90
46378;DHT22;32083;47.360;9.650;2022-12-07T08:21:09;2.40;99.90
46378;DHT22;32083;47.360;9.650;2022-12-07T08:23:36;2.40;99.90
46378;DHT22;32083;47.360;9.650;2022-12-07T08:26:04;2.40;99.90
46378;DHT22;32083;47.360;9.650;2022-12-07T08:28:30;2.50;99.90
46378;DHT22;32083;47.360;9.650;2022-12-07T08:31:01;2.40;99.90
46378;DHT22;32083;47.360;9.650;2022-12-07T08:33:27;2.40;99.90
46378;DHT22;32083;47.360;9.650;2022-12-07T08:35:53;2.50;99.90
46378;DHT22;32083;47.360;9.650;2022-12-07T08:38:19;2.50;99.90
46378;DHT22;32083;47.360;9.650;2022-12-07T08:40:56;2.50;99.90
46378;DHT22;32083;47.360;9.650;2022-12-07T08:43:23;2.50;99.90
46378;DHT22;32083;47.360;9.650;2022-12-07T08:45:58;2.50;99.90
46378;DHT22;32083;47.360;9.650;2022-12-07T08:48:26;2.50;99.90
46378;DHT22;32083;47.360;9.650;2022-12-07T08:50:52;2.50;99.90
46378;DHT22;32083;47.360;9.650;2022-12-07T08:53:18;2.50;99.90
46378;DHT22;32083;47.360;9.650;2022-12-07T08:55:45;2.60;99.90
46378;DHT22;32083;47.360;9.650;2022-12-07T08:58:11;2.60;99.90
46378;DHT22;32083;47.360;9.650;2022-12-07T09:00:37;2.60;99.90
46378;DHT22;32083;47.360;9.650;2022-12-07T09:03:03;2.70;99.90
46378;DHT22;32083;47.360;9.650;2022-12-07T09:05:29;2.70;99.90
46378;DHT22;32083;47.360;9.650;2022-12-07T09:07:57;2.70;99.90
46378;DHT22;32083;47.360;9.650;2022-12-07T09:10:25;2.70;99.90
46378;DHT22;32083;47.360;9.650;2022-12-07T09:12:51;2.70;99.90
46378;DHT22;32083;47.360;9.650;2022-12-07T09:15:17;2.70;99.90
46378;DHT22;32083;47.360;9.650;2022-12-07T09:17:43;2.70;99.90
46378;DHT22;32083;47.360;9.650;2022-12-07T09:20:10;2.80;99.90
46378;DHT22;32083;47.360;9.650;2022-12-07T09:22:36;2.70;99.90
46378;DHT22;32083;47.360;9.650;2022-12-07T09:25:03;2.70;99.90
46378;DHT22;32083;47.360;9.650;2022-12-07T09:27:29;2.70;99.90
46378;DHT22;32083;47.360;9.650;2022-12-07T09:29:55;2.70;99.90
46378;DHT22;32083;47.360;9.650;2022-12-07T09:32:21;2.70;99.90
46378;DHT22;32083;47.360;9.650;2022-12-07T09:34:47;2.70;99.90
46378;DHT22;32083;47.360;9.650;2022-12-07T09:37:13;2.80;99.90
46378;DHT22;32083;47.360;9.650;2022-12-07T09:39:39;2.80;99.90
46378;DHT22;32083;47.360;9.650;2022-12-07T09:42:06;2.90;99.90
46378;DHT22;32083;47.360;9.650;2022-12-07T09:44:34;2.90;99.90
46378;DHT22;32083;47.360;9.650;2022-12-07T09:47:00;2.90;99.90
46378;DHT22;32083;47.360;9.650;2022-12-07T09:49:32;3.00;99.90
46378;DHT22;32083;47.360;9.650;2022-12-07T09:52:34;3.00;99.90
46378;DHT22;32083;47.360;9.650;2022-12-07T09:55:01;3.00;99.90
46378;DHT22;32083;47.360;9.650;2022-12-07T09:57:31;3.00;99.90
46378;DHT22;32083;47.360;9.650;2022-12-07T10:00:02;3.10;99.90
46378;DHT22;32083;47.360;9.650;2022-12-07T10:02:37;3.10;99.90
46378;DHT22;32083;47.360;9.650;2022-12-07T10:05:06;3.10;99.90
46378;DHT22;32083;47.360;9.650;2022-12-07T10:07:32;3.10;99.90
46378;DHT22;32083;47.360;9.650;2022-12-07T10:09:58;3.00;99.90
46378;DHT22;32083;47.360;9.650;2022-12-07T10:12:24;3.00;99.90
46378;DHT22;32083;47.360;9.650;2022-12-07T10:15:00;3.00;99.90
46378;DHT22;32083;47.360;9.650;2022-12-07T10:17:40;3.00;99.90
46378;DHT22;32083;47.360;9.650;2022-12-07T10:20:14;3.00;99.90
46378;DHT22;32083;47.360;9.650;2022-12-07T10:25:20;3.00;99.90
46378;DHT22;32083;47.360;9.650;2022-12-07T10:28:16;3.00;99.90
46378;DHT22;32083;47.360;9.650;2022-12-07T10:33:40;3.00;99.90
46378;DHT22;32083;47.360;9.650;2022-12-07T10:36:40;3.00;99.90
46378;DHT22;32083;47.360;9.650;2022-12-07T10:39:16;3.00;99.90
46378;DHT22;32083;47.360;9.650;2022-12-07T10:41:57;3.00;99.90
46378;DHT22;32083;47.360;9.650;2022-12-07T10:44:30;3.10;99.90
46378;DHT22;32083;47.360;9.650;2022-12-07T11:00:30;3.20;99.90
46378;DHT22;32083;47.360;9.650;2022-12-07T11:11:42;3.30;99.90
46378;DHT22;32083;47.360;9.650;2022-12-07T11:14:37;3.40;99.90
46378;DHT22;32083;47.360;9.650;2022-12-07T11:17:26;3.40;99.90
46378;DHT22;32083;47.360;9.650;2022-12-07T11:29:57;3.60;99.90
46378;DHT22;32083;47.360;9.650;2022-12-07T11:32:43;3.60;99.90
46378;DHT22;32083;47.360;9.650;2022-12-07T11:35:18;3.70;99.90
46378;DHT22;32083;47.360;9.650;2022-12-07T11:37:54;3.70;99.90
46378;DHT22;32083;47.360;9.650;2022-12-07T11:40:29;3.80;99.90
46378;DHT22;32083;47.360;9.650;2022-12-07T11:43:20;3.80;99.90
46378;DHT22;32083;47.360;9.650;2022-12-07T11:46:15;3.80;99.90
46378;DHT22;32083;47.360;9.650;2022-12-07T11:48:44;3.80;99.90
46378;DHT22;32083;47.360;9.650;2022-12-07T11:51:12;3.90;99.90
46378;DHT22;32083;47.360;9.650;2022-12-07T11:53:51;3.80;99.90
46378;DHT22;32083;47.360;9.650;2022-12-07T11:56:23;3.80;99.90
46378;DHT22;32083;47.360;9.650;2022-12-07T11:59:09;3.80;99.90
46378;DHT22;32083;47.360;9.650;2022-12-07T12:05:16;3.80;99.90
46378;DHT22;32083;47.360;9.650;2022-12-07T12:07:26;3.90;99.90
46378;DHT22;32083;47.360;9.650;2022-12-07T12:10:04;3.90;99.90
46378;DHT22;32083;47.360;9.650;2022-12-07T12:18:26;3.90;99.90
46378;DHT22;32083;47.360;9.650;2022-12-07T12:21:15;3.80;99.90
46378;DHT22;32083;47.360;9.650;2022-12-07T12:23:45;3.80;99.90
46378;DHT22;32083;47.360;9.650;2022-12-07T12:26:20;3.90;99.90
46378;DHT22;32083;47.360;9.650;2022-12-07T12:29:06;4.00;99.90
46378;DHT22;32083;47.360;9.650;2022-12-07T12:31:47;4.00;99.90
46378;DHT22;32083;47.360;9.650;2022-12-07T12:36:55;4.10;99.90
46378;DHT22;32083;47.360;9.650;2022-12-07T12:39:21;4.10;99.90
46378;DHT22;32083;47.360;9.650;2022-12-07T12:41:52;4.20;99.90
46378;DHT22;32083;47.360;9.650;2022-12-07T12:46:57;4.20;99.90
46378;DHT22;32083;47.360;9.650;2022-12-07T12:56:53;4.30;99.90
46378;DHT22;32083;47.360;9.650;2022-12-07T13:01:49;4.40;99.90
46378;DHT22;32083;47.360;9.650;2022-12-07T13:04:28;4.30;99.90
46378;DHT22;32083;47.360;9.650;2022-12-07T13:06:55;4.30;99.90
46378;DHT22;32083;47.360;9.650;2022-12-07T13:09:27;4.40;99.90
46378;DHT22;32083;47.360;9.650;2022-12-07T13:12:14;4.50;99.90
46378;DHT22;32083;47.360;9.650;2022-12-07T13:14:55;4.50;99.90
46378;DHT22;32083;47.360;9.650;2022-12-07T13:20:00;4.50;99.90
46378;DHT22;32083;47.360;9.650;2022-12-07T13:24:57;4.50;99.90
46378;DHT22;32083;47.360;9.650;2022-12-07T13:27:25;4.50;99.90
46378;DHT22;32083;47.360;9.650;2022-12-07T13:29:53;4.50;99.90
46378;DHT22;32083;47.360;9.650;2022-12-07T13:32:27;4.50;99.90
46378;DHT22;32083;47.360;9.650;2022-12-07T13:34:54;4.30;99.90
46378;DHT22;32083;47.360;9.650;2022-12-07T13:37:30;4.30;99.90
46378;DHT22;32083;47.360;9.650;2022-12-07T13:40:00;4.30;99.90
46378;DHT22;32083;47.360;9.650;2022-12-07T13:42:34;4.10;99.90
46378;DHT22;32083;47.360;9.650;2022-12-07T13:45:25;4.10;99.90
46378;DHT22;32083;47.360;9.650;2022-12-07T13:48:16;4.20;99.90
46378;DHT22;32083;47.360;9.650;2022-12-07T13:50:55;4.10;99.90
46378;DHT22;32083;47.360;9.650;2022-12-07T13:53:22;4.20;99.90
46378;DHT22;32083;47.360;9.650;2022-12-07T13:55:48;4.20;99.90
46378;DHT22;32083;47.360;9.650;2022-12-07T13:58:14;4.30;99.90
46378;DHT22;32083;47.360;9.650;2022-12-07T14:00:41;4.30;99.90
46378;DHT22;32083;47.360;9.650;2022-12-07T14:05:41;4.30;99.90
46378;DHT22;32083;47.360;9.650;2022-12-07T14:13:37;4.30;99.90
46378;DHT22;32083;47.360;9.650;2022-12-07T14:16:29;4.30;99.90
46378;DHT22;32083;47.360;9.650;2022-12-07T14:18:57;4.40;99.90
46378;DHT22;32083;47.360;9.650;2022-12-07T14:21:26;4.20;99.90
46378;DHT22;32083;47.360;9.650;2022-12-07T14:24:25;4.20;99.90
46378;DHT22;32083;47.360;9.650;2022-12-07T14:26:51;4.20;99.90
46378;DHT22;32083;47.360;9.650;2022-12-07T14:29:32;4.20;99.90
46378;DHT22;32083;47.360;9.650;2022-12-07T14:32:32;4.20;99.90
46378;DHT22;32083;47.360;9.650;2022-12-07T14:34:59;4.20;99.90
46378;DHT22;32083;47.360;9.650;2022-12-07T14:37:26;4.20;99.90
46378;DHT22;32083;47.360;9.650;2022-12-07T14:39:52;4.30;99.90
46378;DHT22;32083;47.360;9.650;2022-12-07T14:42:18;4.30;99.90
46378;DHT22;32083;47.360;9.650;2022-12-07T14:44:45;4.30;99.90
46378;DHT22;32083;47.360;9.650;2022-12-07T14:47:11;4.30;99.90
46378;DHT22;32083;47.360;9.650;2022-12-07T14:49:37;4.30;99.90
46378;DHT22;32083;47.360;9.650;2022-12-07T14:52:04;4.30;99.90
46378;DHT22;32083;47.360;9.650;2022-12-07T14:54:32;4.30;99.90
46378;DHT22;32083;47.360;9.650;2022-12-07T14:56:58;4.30;99.90
46378;DHT22;32083;47.360;9.650;2022-12-07T14:59:24;4.20;99.90
46378;DHT22;32083;47.360;9.650;2022-12-07T15:01:50;4.20;99.90
46378;DHT22;32083;47.360;9.650;2022-12-07T15:04:16;4.20;99.90
46378;DHT22;32083;47.360;9.650;2022-12-07T15:06:48;4.20;99.90
46378;DHT22;32083;47.360;9.650;2022-12-07T15:09:19;4.20;99.90
46378;DHT22;32083;47.360;9.650;2022-12-07T15:11:45;4.20;99.90
46378;DHT22;32083;47.360;9.650;2022-12-07T15:14:11;4.20;99.90
46378;DHT22;32083;47.360;9.650;2022-12-07T15:16:40;4.20;99.90
46378;DHT22;32083;47.360;9.650;2022-12-07T15:19:14;4.20;99.90
46378;DHT22;32083;47.360;9.650;2022-12-07T15:21:41;4.10;99.90
46378;DHT22;32083;47.360;9.650;2022-12-07T15:24:12;4.10;99.90
46378;DHT22;32083;47.360;9.650;2022-12-07T15:26:38;4.20;99.90
46378;DHT22;32083;47.360;9.650;2022-12-07T15:29:06;4.10;99.90
46378;DHT22;32083;47.360;9.650;2022-12-07T15:31:32;4.10;99.90
46378;DHT22;32083;47.360;9.650;2022-12-07T15:33:58;4.10;99.90
46378;DHT22;32083;47.360;9.650;2022-12-07T15:36:27;4.10;99.90
46378;DHT22;32083;47.360;9.650;2022-12-07T15:38:53;4.10;99.90
46378;DHT22;32083;47.360;9.650;2022-12-07T15:41:20;4.10;99.90
46378;DHT22;32083;47.360;9.650;2022-12-07T15:43:46;4.10;99.90
46378;DHT22;32083;47.360;9.650;2022-12-07T15:46:36;4.10;99.90
46378;DHT22;32083;47.360;9.650;2022-12-07T15:49:04;4.10;99.90
46378;DHT22;32083;47.360;9.650;2022-12-07T15:51:30;4.10;99.90
46378;DHT22;32083;47.360;9.650;2022-12-07T15:53:57;4.10;99.90
46378;DHT22;32083;47.360;9.650;2022-12-07T15:56:24;4.10;99.90
46378;DHT22;32083;47.360;9.650;2022-12-07T15:58:50;4.10;99.90
46378;DHT22;32083;47.360;9.650;2022-12-07T16:01:18;4.10;99.90
46378;DHT22;32083;47.360;9.650;2022-12-07T16:03:45;4.10;99.90
46378;DHT22;32083;47.360;9.650;2022-12-07T16:06:11;4.00;99.90
46378;DHT22;32083;47.360;9.650;2022-12-07T16:08:42;4.10;99.90
46378;DHT22;32083;47.360;9.650;2022-12-07T16:11:09;4.10;99.90
46378;DHT22;32083;47.360;9.650;2022-12-07T16:13:35;4.00;99.90
46378;DHT22;32083;47.360;9.650;2022-12-07T16:16:10;4.10;99.90
46378;DHT22;32083;47.360;9.650;2022-12-07T16:18:36;4.10;99.90
46378;DHT22;32083;47.360;9.650;2022-12-07T16:21:02;4.10;99.90
46378;DHT22;32083;47.360;9.650;2022-12-07T16:23:28;4.10;99.90
46378;DHT22;32083;47.360;9.650;2022-12-07T16:25:54;4.10;99.90
46378;DHT22;32083;47.360;9.650;2022-12-07T16:28:20;4.20;99.90
46378;DHT22;32083;47.360;9.650;2022-12-07T16:30:46;4.20;99.90
46378;DHT22;32083;47.360;9.650;2022-12-07T16:33:12;4.10;99.90
46378;DHT22;32083;47.360;9.650;2022-12-07T16:35:39;4.10;99.90
46378;DHT22;32083;47.360;9.650;2022-12-07T16:38:07;4.10;99.90
46378;DHT22;32083;47.360;9.650;2022-12-07T16:40:33;4.10;99.90
46378;DHT22;32083;47.360;9.650;2022-12-07T16:42:59;4.20;99.90
46378;DHT22;32083;47.360;9.650;2022-12-07T16:45:25;4.20;99.90
46378;DHT22;32083;47.360;9.650;2022-12-07T16:47:51;4.10;99.90
46378;DHT22;32083;47.360;9.650;2022-12-07T16:50:17;4.10;99.90
46378;DHT22;32083;47.360;9.650;2022-12-07T16:52:43;4.10;99.90
46378;DHT22;32083;47.360;9.650;2022-12-07T16:55:08;4.10;99.90
46378;DHT22;32083;47.360;9.650;2022-12-07T16:57:34;4.10;99.90
46378;DHT22;32083;47.360;9.650;2022-12-07T17:00:00;4.10;99.90
46378;DHT22;32083;47.360;9.650;2022-12-07T17:02:26;4.10;99.90
46378;DHT22;32083;47.360;9.650;2022-12-07T17:04:53;4.10;99.90
46378;DHT22;32083;47.360;9.650;2022-12-07T17:07:19;4.10;99.90
46378;DHT22;32083;47.360;9.650;2022-12-07T17:09:45;4.10;99.90
46378;DHT22;32083;47.360;9.650;2022-12-07T17:12:11;4.10;99.90
46378;DHT22;32083;47.360;9.650;2022-12-07T17:14:37;4.10;99.90
46378;DHT22;32083;47.360;9.650;2022-12-07T17:17:21;4.00;99.90
46378;DHT22;32083;47.360;9.650;2022-12-07T17:19:47;4.00;99.90
46378;DHT22;32083;47.360;9.650;2022-12-07T17:22:13;4.00;99.90
46378;DHT22;32083;47.360;9.650;2022-12-07T17:24:39;4.00;99.90
46378;DHT22;32083;47.360;9.650;2022-12-07T17:27:05;4.00;99.90
46378;DHT22;32083;47.360;9.650;2022-12-07T17:29:31;4.00;99.90
46378;DHT22;32083;47.360;9.650;2022-12-07T17:31:57;4.00;99.90
46378;DHT22;32083;47.360;9.650;2022-12-07T17:34:22;4.00;99.90
46378;DHT22;32083;47.360;9.650;2022-12-07T17:36:48;4.00;99.90
46378;DHT22;32083;47.360;9.650;2022-12-07T17:39:16;4.00;99.90
46378;DHT22;32083;47.360;9.650;2022-12-07T17:41:42;3.90;99.90
46378;DHT22;32083;47.360;9.650;2022-12-07T17:44:28;3.90;99.90
46378;DHT22;32083;47.360;9.650;2022-12-07T17:46:54;3.80;99.90
46378;DHT22;32083;47.360;9.650;2022-12-07T17:49:23;3.80;99.90